Surface observations / Quebec / CYHU (71371)

Quebec | Canada | USA | France | UK | Europe | Elsewhere

Display: Info & Location for CYHU (71371) | Help decoding METAR

CYHU MONTREAL/ST HUBERT A QB CN
Raw surface observations for station CYHU
CYHU 280200Z AUTO 30006KT 9SM CLR 18/14 A3006 RMK SLP181 DENSITY ALT 300FT=
CYHU 280100Z AUTO 27006KT 9SM CLR 19/14 A3004 RMK SLP174 DENSITY ALT 400FT=
CYHU 280000Z AUTO 27012G17KT 9SM CLR 20/14 A3002 RMK SLP166 DENSITY ALT 500FT=
CYHU 272300Z AUTO 27013G18KT 9SM CLR 21/15 A3000 RMK SLP158 DENSITY ALT 600FT=
CYHU 272200Z AUTO 26014G19KT 9SM OVC041 21/15 A2998 RMK SLP154 DENSITY ALT 700FT=
CYHU 272100Z AUTO 24014G19KT 9SM BKN090 21/16 A2998 RMK SLP152 DENSITY ALT 700FT=
CYHU 272032Z AUTO 24012KT 160V310 9SM BKN036 OVC055 22/17 A2998 RMK SLP153 DENSITY ALT 800FT=
CYHU 272012Z AUTO 06005KT 010V100 6SM -RA OVC034 19/15 A2998 RMK SLP154 DENSITY ALT 500FT=
CYHU 272011Z AUTO 05005KT 010V110 4SM -RA OVC034 19/15 A2998 RMK SLP154 DENSITY ALT 500FT=
CYHU 272007Z AUTO VRB06KT 2 1/2SM RA OVC034 19/15 A2998 RMK VIS VRB 3/4-3 SLP153 DENSITY ALT 500FT=
CYHU 272005Z AUTO VRB06KT 2 1/2SM +RA OVC034 19/15 A2998 RMK VIS VRB 3/4-3 SLP152 DENSITY ALT 500FT=
CYHU 272001Z AUTO VRB02KT 5SM -RA BR FEW029 BKN034 OVC055 19/16 A2998 RMK SLP153 DENSITY ALT 500FT=
CYHU 272000Z AUTO VRB02KT 9SM -RA FEW029 BKN034 OVC055 19/16 A2998 RMK SLP153 DENSITY ALT 500FT=
CYHU 271954Z AUTO VRB03KT 9SM BKN034 OVC055 19/16 A2998 RMK SLP153 DENSITY ALT 500FT=
CYHU 271914Z AUTO 24011G17KT 9SM +RA SCT032 BKN043 OVC060 20/16 A2999 RMK SLP157 DENSITY ALT 500FT=
CYHU 271913Z AUTO 24012G17KT 9SM RA BKN034 BKN047 OVC060 20/16 A2999 RMK SLP157 DENSITY ALT 500FT=
CYHU 271900Z AUTO 21010KT 9SM SCT045 BKN055 BKN073 21/15 A2999 RMK SLP155 DENSITY ALT 700FT=
CYHU 271816Z AUTO 15003KT 120V190 9SM FEW035 OVC090 20/17 A3000 RMK SLP158 DENSITY ALT 500FT=
CYHU 271600Z AUTO 22011KT 9SM SCT025 BKN034 OVC100 20/15 A3000 RMK SLP158 DENSITY ALT 500FT=
CYHU 271533Z AUTO 25013KT 9SM BKN025 OVC034 20/14 A3000 RMK SLP159 DENSITY ALT 500FT=
CYHU 271500Z AUTO 25010G18KT 9SM OVC023 20/15 A3000 RMK SLP159 DENSITY ALT 500FT=
CYHU 271403Z AUTO 26009G15KT 9SM BKN023 OVC028 19/14 A2999 RMK SLP156 DENSITY ALT 400FT=
CYHU 271402Z AUTO 26011KT 9SM OVC026 19/14 A2999 RMK SLP157 DENSITY ALT 400FT=
CYHU 271400Z AUTO 25010G15KT 9SM BKN023 BKN029 OVC060 19/14 A2999 RMK SLP156 DENSITY ALT 400FT=
CYHU 271355Z AUTO 24012KT 9SM BKN023 BKN029 OVC060 19/14 A2999 RMK SLP157 DENSITY ALT 400FT=
CYHU 271354Z AUTO 24012KT 9SM SCT020 BKN027 OVC060 19/14 A2999 RMK SLP156 DENSITY ALT 400FT=
CYHU 271343Z AUTO 24012G17KT 9SM BKN020 OVC060 18/14 A2999 RMK SLP156 DENSITY ALT 400FT=
CYHU 271341Z AUTO 25013KT 9SM SCT020 BKN025 OVC060 18/15 A2999 RMK SLP157 DENSITY ALT 400FT=
CYHU 271318Z AUTO 25011G18KT 9SM BKN018 BKN038 OVC065 18/14 A2999 RMK SLP155 DENSITY ALT 300FT=
CYHU 271300Z AUTO 26012KT 9SM SCT016 BKN065 OVC110 18/14 A2998 RMK SLP154 DENSITY ALT 300FT=
CYHU 271200Z AUTO 23009KT 9SM OVC055 17/15 A2997 RMK SLP150 DENSITY ALT 300FT=
CYHU 271133Z AUTO 24011KT 9SM SCT016 OVC060 17/15 A2997 RMK SLP149 DENSITY ALT 300FT=
CYHU 271100Z AUTO 24009KT 9SM BKN016 OVC060 17/15 A2996 RMK SLP146 DENSITY ALT 300FT=
CYHU 271000Z AUTO 25011KT 9SM BKN019 BKN023 OVC060 17/15 A2994 RMK SLP139 DENSITY ALT 300FT=
CYHU 270900Z AUTO 23008KT 9SM BKN015 OVC021 18/15 A2993 RMK SLP135 DENSITY ALT 300FT=
CYHU 270807Z AUTO 22007KT 9SM BKN017 BKN034 BKN075 OVC089 17/15 A2993 RMK SLP135 DENSITY ALT 300FT=
CYHU 270800Z AUTO 21009KT 9SM SCT017 SCT033 BKN075 OVC120 17/15 A2993 RMK SLP135 DENSITY ALT 300FT=
CYHU 270737Z AUTO 21007KT 9SM SCT024 BKN030 OVC120 17/15 A2993 RMK SLP136 DENSITY ALT 300FT=
CYHU 270725Z AUTO 21008KT 9SM BKN022 BKN028 OVC120 17/15 A2993 RMK SLP136 DENSITY ALT 300FT=
CYHU 270722Z AUTO 21008KT 9SM SCT022 BKN028 OVC120 17/15 A2993 RMK SLP136 DENSITY ALT 300FT=
CYHU 270721Z AUTO 21008KT 9SM BKN022 BKN028 OVC120 17/15 A2993 RMK SLP136 DENSITY ALT 300FT=
CYHU 270700Z AUTO 22007KT 9SM FEW020 SCT031 BKN100 OVC120 18/15 A2993 RMK SLP136 DENSITY ALT 300FT=
CYHU 270600Z AUTO 21007KT 9SM SCT020 OVC029 18/15 A2994 RMK SLP138 DENSITY ALT 400FT=
CYHU 270551Z AUTO 21009KT 9SM SCT020 BKN026 BKN032 OVC110 18/15 A2994 RMK SLP140 DENSITY ALT 400FT=
CYHU 270530Z AUTO 24008KT 9SM SCT025 SCT080 OVC100 18/16 A2994 RMK SLP140 DENSITY ALT 400FT=
CYHU 270500Z AUTO 24007KT 9SM -RA SCT025 SCT032 OVC090 18/16 A2994 RMK SLP140 DENSITY ALT 400FT=
CYHU 270450Z AUTO 23009KT 9SM -RA BKN025 BKN032 OVC090 19/15 A2994 RMK SLP140 DENSITY ALT 500FT=
CYHU 270400Z AUTO 27005KT 9SM OVC085 19/13 A2994 RMK SLP138 DENSITY ALT 500FT=
CYHU 270300Z AUTO 25010KT 9SM FEW032 OVC090 20/14 A2994 RMK SLP140 DENSITY ALT 600FT=
CYHU 270200Z AUTO 26012G17KT 9SM CLR 20/14 A2994 RMK SLP139 DENSITY ALT 600FT=